Time,TemperatureF,DewpointF,PressureIn,WindDirection,WindDirectionDegrees,WindSpeedMPH,WindSpeedGustMPH,Humidity,HourlyPrecipIn,Conditions,Clouds,dailyrainin,SoftwareType,DateUTC
2013-02-04 00:00:00,26.3,15.5,29.74,SW,235,0.0,0.0,63,0.00,,,0.00,VWS V14.01,2013-02-04 05:00:00,
2013-02-04 00:01:00,26.3,15.5,29.74,SW,235,0.0,0.0,63,0.00,,,0.00,VWS V14.01,2013-02-04 05:01:00,
2013-02-04 00:02:00,26.3,15.5,29.74,SW,222,0.0,0.0,63,0.00,,,0.00,VWS V14.01,2013-02-04 05:02:00,
2013-02-04 00:03:00,26.3,15.8,29.74,SW,222,0.0,0.0,64,0.00,,,0.00,VWS V14.01,2013-02-04 05:03:00,
2013-02-04 00:04:00,26.3,15.8,29.74,SW,222,0.0,0.0,64,0.00,,,0.00,VWS V14.01,2013-02-04 05:04:00,
2013-02-04 00:05:00,26.3,15.8,29.74,WSW,240,0.0,0.0,64,0.00,,,0.00,VWS V14.01,2013-02-04 05:05:00,
2013-02-04 00:06:00,26.3,15.8,29.74,WSW,240,0.0,0.0,64,0.00,,,0.00,VWS V14.01,2013-02-04 05:06:00,
2013-02-04 00:07:00,26.3,15.8,29.74,WSW,240,0.0,0.0,64,0.00,,,0.00,VWS V14.01,2013-02-04 05:07:00,
2013-02-04 00:08:00,26.3,15.8,29.74,WSW,240,0.0,0.0,64,0.00,,,0.00,VWS V14.01,2013-02-04 05:08:00,
2013-02-04 00:09:00,26.5,16.4,29.74,NNW,329,0.0,0.0,65,0.00,,,0.00,VWS V14.01,2013-02-04 05:09:00,
2013-02-04 00:10:00,26.5,16.4,29.74,NNW,329,0.0,0.0,65,0.00,,,0.00,VWS V14.01,2013-02-04 05:10:00,
2013-02-04 00:11:00,26.5,16.4,29.74,NNW,329,0.0,0.0,65,0.00,,,0.00,VWS V14.01,2013-02-04 05:11:00,
2013-02-04 00:12:00,26.5,16.4,29.74,NNW,329,0.0,0.0,65,0.00,,,0.00,VWS V14.01,2013-02-04 05:12:00,
2013-02-04 00:13:00,26.5,16.4,29.74,NNW,329,0.0,0.0,65,0.00,,,0.00,VWS V14.01,2013-02-04 05:13:00,
2013-02-04 00:14:00,26.5,16.4,29.74,NNW,329,0.0,0.0,65,0.00,,,0.00,VWS V14.01,2013-02-04 05:14:00,
2013-02-04 00:15:00,26.5,16.4,29.74,NNW,329,0.0,0.0,65,0.00,,,0.00,VWS V14.01,2013-02-04 05:15:00,
2013-02-04 00:16:00,26.5,16.7,29.74,NNW,329,0.0,0.0,66,0.00,,,0.00,VWS V14.01,2013-02-04 05:16:00,
2013-02-04 00:17:00,26.5,16.7,29.74,NNW,329,0.0,0.0,66,0.00,,,0.00,VWS V14.01,2013-02-04 05:17:00,
2013-02-04 00:18:00,26.5,16.7,29.74,NNW,329,0.0,0.0,66,0.00,,,0.00,VWS V14.01,2013-02-04 05:18:00,
2013-02-04 00:19:00,26.5,16.7,29.74,West,273,2.2,2.2,66,0.00,,,0.00,VWS V14.01,2013-02-04 05:19:00,
2013-02-04 00:20:00,26.5,17.1,29.74,SW,226,0.0,2.2,67,0.00,,,0.00,VWS V14.01,2013-02-04 05:20:00,
2013-02-04 00:21:00,26.5,17.1,29.74,SW,226,0.0,0.0,67,0.00,,,0.00,VWS V14.01,2013-02-04 05:21:00,
2013-02-04 00:22:00,26.5,17.1,29.74,SW,226,0.0,0.0,67,0.00,,,0.00,VWS V14.01,2013-02-04 05:22:00,
2013-02-04 00:23:00,26.5,17.4,29.74,WNW,302,0.0,0.0,68,0.00,,,0.00,VWS V14.01,2013-02-04 05:23:00,
2013-02-04 00:24:00,26.5,17.4,29.74,NW,322,0.0,0.0,68,0.00,,,0.00,VWS V14.01,2013-02-04 05:24:00,
2013-02-04 00:25:00,26.5,17.4,29.74,NW,322,0.0,0.0,68,0.00,,,0.00,VWS V14.01,2013-02-04 05:25:00,
2013-02-04 00:26:00,26.5,17.4,29.74,NW,322,0.0,0.0,68,0.00,,,0.00,VWS V14.01,2013-02-04 05:26:00,
2013-02-04 00:27:00,26.5,17.4,29.74,NW,322,0.0,0.0,68,0.00,,,0.00,VWS V14.01,2013-02-04 05:27:00,
2013-02-04 00:28:00,26.5,17.4,29.74,NW,322,0.0,0.0,68,0.00,,,0.00,VWS V14.01,2013-02-04 05:28:00,
2013-02-04 00:29:00,26.5,17.4,29.74,NW,322,0.0,0.0,68,0.00,,,0.00,VWS V14.01,2013-02-04 05:29:00,
2013-02-04 00:30:00,26.5,17.4,29.74,NW,322,0.0,0.0,68,0.00,,,0.00,VWS V14.01,2013-02-04 05:30:00,
2013-02-04 00:31:00,26.5,17.4,29.74,West,272,0.0,0.0,68,0.00,,,0.00,VWS V14.01,2013-02-04 05:31:00,
2013-02-04 00:32:00,26.5,17.4,29.74,West,272,0.0,0.0,68,0.00,,,0.00,VWS V14.01,2013-02-04 05:32:00,
2013-02-04 00:33:00,26.5,17.4,29.74,West,272,0.0,0.0,68,0.00,,,0.00,VWS V14.01,2013-02-04 05:33:00,
2013-02-04 00:34:00,26.5,17.4,29.74,WNW,290,3.6,3.6,68,0.00,,,0.00,VWS V14.01,2013-02-04 05:34:00,
2013-02-04 00:35:00,26.5,17.7,29.74,WNW,290,3.6,3.6,69,0.00,,,0.00,VWS V14.01,2013-02-04 05:35:00,
2013-02-04 00:36:00,26.5,17.7,29.74,WNW,290,3.6,3.6,69,0.00,,,0.00,VWS V14.01,2013-02-04 05:36:00,
2013-02-04 00:37:00,26.5,17.7,29.74,North,0,0.0,3.6,69,0.00,,,0.00,VWS V14.01,2013-02-04 05:37:00,
2013-02-04 00:38:00,26.5,18.1,29.74,NNW,334,0.0,0.0,70,0.00,,,0.00,VWS V14.01,2013-02-04 05:38:00,
2013-02-04 00:39:00,26.5,18.1,29.74,NNW,334,0.0,0.0,70,0.00,,,0.00,VWS V14.01,2013-02-04 05:39:00,
2013-02-04 00:40:00,26.5,18.1,29.74,NNW,334,0.0,0.0,70,0.00,,,0.00,VWS V14.01,2013-02-04 05:40:00,
2013-02-04 00:41:00,26.5,18.1,29.74,NW,318,0.0,0.0,70,0.00,,,0.00,VWS V14.01,2013-02-04 05:41:00,
2013-02-04 00:42:00,26.5,18.1,29.74,NW,318,0.0,0.0,70,0.00,,,0.00,VWS V14.01,2013-02-04 05:42:00,
2013-02-04 00:43:00,26.5,18.1,29.74,NW,318,0.0,0.0,70,0.00,,,0.00,VWS V14.01,2013-02-04 05:43:00,
2013-02-04 00:44:00,26.5,18.1,29.74,WNW,288,0.0,0.0,70,0.00,,,0.00,VWS V14.01,2013-02-04 05:44:00,
2013-02-04 00:45:00,26.5,18.1,29.74,West,266,0.0,0.0,70,0.00,,,0.00,VWS V14.01,2013-02-04 05:45:00,
2013-02-04 00:46:00,26.7,18.2,29.74,West,273,4.0,4.0,70,0.00,,,0.00,VWS V14.01,2013-02-04 05:46:00,
2013-02-04 00:47:00,26.7,18.2,29.74,West,273,4.0,4.0,70,0.00,,,0.00,VWS V14.01,2013-02-04 05:47:00,
2013-02-04 00:48:00,26.7,18.2,29.74,NW,313,2.2,3.1,70,0.00,,,0.00,VWS V14.01,2013-02-04 05:48:00,
2013-02-04 00:49:00,26.7,18.2,29.74,NW,313,2.2,3.1,70,0.00,,,0.00,VWS V14.01,2013-02-04 05:49:00,
2013-02-04 00:50:00,26.7,18.2,29.74,NNW,339,4.0,4.0,70,0.00,,,0.00,VWS V14.01,2013-02-04 05:50:00,
2013-02-04 00:51:00,26.7,18.2,29.74,WNW,302,5.4,5.4,70,0.00,,,0.00,VWS V14.01,2013-02-04 05:51:00,
2013-02-04 00:52:00,26.7,18.2,29.74,WNW,286,0.0,5.4,70,0.00,,,0.00,VWS V14.01,2013-02-04 05:52:00,
2013-02-04 00:53:00,26.7,18.2,29.74,WNW,286,0.0,0.0,70,0.00,,,0.00,VWS V14.01,2013-02-04 05:53:00,
2013-02-04 00:54:00,26.7,18.2,29.74,WNW,286,0.0,0.0,70,0.00,,,0.00,VWS V14.01,2013-02-04 05:54:00,
2013-02-04 00:55:00,26.7,18.2,29.74,WNW,291,0.0,0.0,70,0.00,,,0.00,VWS V14.01,2013-02-04 05:55:00,
2013-02-04 00:56:00,26.7,18.2,29.74,WNW,291,0.0,0.0,70,0.00,,,0.00,VWS V14.01,2013-02-04 05:56:00,
2013-02-04 00:57:00,26.7,18.2,29.74,West,275,5.8,5.8,70,0.00,,,0.00,VWS V14.01,2013-02-04 05:57:00,
2013-02-04 00:58:00,26.7,18.2,29.74,West,279,3.6,5.8,70,0.00,,,0.00,VWS V14.01,2013-02-04 05:58:00,
2013-02-04 09:44:00,28.1,6.4,29.91,WNW,287,3.6,3.6,39,0.00,,,0.00,VWS V14.01,2013-02-04 14:44:00,
2013-02-04 09:45:00,28.1,6.4,29.91,WNW,291,6.7,8.1,39,0.00,,,0.00,VWS V14.01,2013-02-04 14:45:00,
2013-02-04 09:46:00,28.3,6.5,29.91,NW,313,5.4,6.7,39,0.00,,,0.00,VWS V14.01,2013-02-04 14:46:00,
2013-02-04 09:47:00,28.1,6.4,29.91,NW,321,5.4,7.6,39,0.00,,,0.00,VWS V14.01,2013-02-04 14:47:00,
2013-02-04 09:48:00,28.5,6.7,29.91,North,357,5.8,8.1,39,0.00,,,0.00,VWS V14.01,2013-02-04 14:48:00,
2013-02-04 09:49:00,28.5,6.7,29.91,WNW,287,4.5,4.5,39,0.00,,,0.00,VWS V14.01,2013-02-04 14:49:00,
2013-02-04 09:50:00,28.5,6.7,29.91,NNW,330,4.0,8.3,39,0.00,,,0.00,VWS V14.01,2013-02-04 14:50:00,
2013-02-04 09:51:00,28.5,6.7,29.91,SSW,196,3.6,6.3,39,0.00,,,0.00,VWS V14.01,2013-02-04 14:51:00,
2013-02-04 09:52:00,28.5,6.1,29.91,SW,227,7.6,7.6,38,0.00,,,0.00,VWS V14.01,2013-02-04 14:52:00,
2013-02-04 09:53:00,28.7,6.3,29.91,West,281,8.3,8.3,38,0.00,,,0.00,VWS V14.01,2013-02-04 14:53:00,
2013-02-04 09:54:00,28.7,6.3,29.91,West,267,5.8,6.3,38,0.00,,,0.00,VWS V14.01,2013-02-04 14:54:00,
2013-02-04 09:55:00,28.7,6.3,29.91,WNW,293,6.3,6.3,38,0.00,,,0.00,VWS V14.01,2013-02-04 14:55:00,
2013-02-04 09:56:00,28.7,6.3,29.91,WSW,245,3.6,6.3,38,0.00,,,0.00,VWS V14.01,2013-02-04 14:56:00,
2013-02-04 09:57:00,28.9,7.0,29.91,WNW,298,8.3,8.3,39,0.00,,,0.00,VWS V14.01,2013-02-04 14:57:00,
2013-02-04 09:58:00,28.9,7.0,29.91,West,280,5.8,8.3,39,0.00,,,0.00,VWS V14.01,2013-02-04 14:58:00,
2013-02-04 09:59:00,28.9,6.5,29.91,West,268,0.0,3.1,38,0.00,,,0.00,VWS V14.01,2013-02-04 14:59:00,
2013-02-04 16:52:00,30.3,5.9,29.85,West,265,0.0,0.0,35,0.00,,,0.00,VWS V14.01,2013-02-04 21:52:00,
2013-02-04 16:57:00,30.3,5.9,29.85,West,273,2.7,4.0,35,0.00,,,0.00,VWS V14.01,2013-02-04 21:57:00,
2013-02-04 17:02:00,30.1,5.8,29.85,WSW,245,2.7,4.0,35,0.00,,,0.00,VWS V14.01,2013-02-04 22:02:00,
2013-02-04 17:07:00,29.9,5.6,29.85,North,353,5.4,5.4,35,0.00,,,0.00,VWS V14.01,2013-02-04 22:07:00,
2013-02-04 17:12:00,29.9,5.6,29.85,NW,316,0.0,0.0,35,0.00,,,0.00,VWS V14.01,2013-02-04 22:12:00,
2013-02-04 17:17:00,29.8,5.5,29.85,WNW,299,0.0,0.0,35,0.00,,,0.00,VWS V14.01,2013-02-04 22:17:00,
2013-02-04 17:22:00,29.6,5.3,29.88,WNW,299,0.0,0.0,35,0.00,,,0.00,VWS V14.01,2013-02-04 22:22:00,
2013-02-04 17:27:00,29.6,5.3,29.88,NW,315,2.7,3.1,35,0.00,,,0.00,VWS V14.01,2013-02-04 22:27:00,
2013-02-04 17:32:00,29.2,5.6,29.88,NW,315,0.0,0.0,36,0.00,,,0.00,VWS V14.01,2013-02-04 22:32:00,
2013-02-04 17:37:00,29.0,5.4,29.88,NW,315,0.0,0.0,36,0.00,,,0.00,VWS V14.01,2013-02-04 22:37:00,
2013-02-04 17:42:00,28.9,5.3,29.88,NW,315,0.0,0.0,36,0.00,,,0.00,VWS V14.01,2013-02-04 22:42:00,
2013-02-04 17:47:00,28.7,5.1,29.88,NW,315,0.0,0.0,36,0.00,,,0.00,VWS V14.01,2013-02-04 22:47:00,
2013-02-04 17:52:00,28.3,4.8,29.88,NW,315,0.0,0.0,36,0.00,,,0.00,VWS V14.01,2013-02-04 22:52:00,
2013-02-04 17:57:00,28.1,4.6,29.88,NW,315,0.0,0.0,36,0.00,,,0.00,VWS V14.01,2013-02-04 22:57:00,
2013-02-04 18:02:00,27.8,4.3,29.88,NW,315,0.0,0.0,36,0.00,,,0.00,VWS V14.01,2013-02-04 23:02:00,
2013-02-04 18:07:00,27.2,3.8,29.88,NW,315,0.0,0.0,36,0.00,,,0.00,VWS V14.01,2013-02-04 23:07:00,
2013-02-04 18:12:00,27.1,3.7,29.88,NW,315,0.0,0.0,36,0.00,,,0.00,VWS V14.01,2013-02-04 23:12:00,
2013-02-04 18:17:00,26.9,4.1,29.88,NW,315,0.0,0.0,37,0.00,,,0.00,VWS V14.01,2013-02-04 23:17:00,
2013-02-04 18:22:00,26.7,3.9,29.88,NW,315,0.0,0.0,37,0.00,,,0.00,VWS V14.01,2013-02-04 23:22:00,
2013-02-04 18:28:00,26.5,3.8,29.88,NW,315,0.0,0.0,37,0.00,,,0.00,VWS V14.01,2013-02-04 23:28:00,
2013-02-04 18:33:00,26.3,3.6,29.88,NW,315,0.0,0.0,37,0.00,,,0.00,VWS V14.01,2013-02-04 23:33:00,
2013-02-04 18:38:00,26.3,3.6,29.88,NW,315,0.0,0.0,37,0.00,,,0.00,VWS V14.01,2013-02-04 23:38:00,
2013-02-04 18:43:00,26.3,3.6,29.88,NW,315,0.0,0.0,37,0.00,,,0.00,VWS V14.01,2013-02-04 23:43:00,
2013-02-04 18:48:00,26.2,4.0,29.88,NW,315,0.0,0.0,38,0.00,,,0.00,VWS V14.01,2013-02-04 23:48:00,
2013-02-04 18:53:00,26.0,3.9,29.88,NW,315,0.0,0.0,38,0.00,,,0.00,VWS V14.01,2013-02-04 23:53:00,
2013-02-04 18:58:00,26.0,3.9,29.88,NW,315,0.0,0.0,38,0.00,,,0.00,VWS V14.01,2013-02-04 23:58:00,
2013-02-04 19:03:00,25.8,4.8,29.88,NW,315,0.0,0.0,40,0.00,,,0.00,VWS V14.01,2013-02-05 00:03:00,
2013-02-04 19:08:00,26.0,5.0,29.88,NW,315,0.0,0.0,40,0.00,,,0.00,VWS V14.01,2013-02-05 00:08:00,
2013-02-04 19:13:00,26.0,5.0,29.88,NW,315,0.0,0.0,40,0.00,,,0.00,VWS V14.01,2013-02-05 00:13:00,
2013-02-04 19:18:00,26.0,5.0,29.88,NW,315,0.0,0.0,40,0.00,,,0.00,VWS V14.01,2013-02-05 00:18:00,
2013-02-04 19:23:00,25.8,5.4,29.88,NW,315,0.0,0.0,41,0.00,,,0.00,VWS V14.01,2013-02-05 00:23:00,
2013-02-04 19:28:00,25.6,5.2,29.88,NW,315,0.0,0.0,41,0.00,,,0.00,VWS V14.01,2013-02-05 00:28:00,
2013-02-04 19:33:00,25.4,5.0,29.88,NW,315,0.0,0.0,41,0.00,,,0.00,VWS V14.01,2013-02-05 00:33:00,
2013-02-04 19:38:00,25.3,4.9,29.88,NW,315,0.0,0.0,41,0.00,,,0.00,VWS V14.01,2013-02-05 00:38:00,
2013-02-04 19:43:00,25.3,4.9,29.88,NW,315,0.0,0.0,41,0.00,,,0.00,VWS V14.01,2013-02-05 00:43:00,
2013-02-04 19:48:00,25.1,4.7,29.88,NW,315,0.0,0.0,41,0.00,,,0.00,VWS V14.01,2013-02-05 00:48:00,
2013-02-04 19:53:00,24.9,5.1,29.88,NW,315,0.0,0.0,42,0.00,,,0.00,VWS V14.01,2013-02-05 00:53:00,
2013-02-04 19:58:00,24.7,4.9,29.88,NW,315,0.0,0.0,42,0.00,,,0.00,VWS V14.01,2013-02-05 00:58:00,
2013-02-04 20:04:00,24.5,4.7,29.88,NW,315,0.0,0.0,42,0.00,,,0.00,VWS V14.01,2013-02-05 01:04:00,
2013-02-04 20:09:00,24.4,4.6,29.88,NW,315,0.0,0.0,42,0.00,,,0.00,VWS V14.01,2013-02-05 01:09:00,
2013-02-04 20:14:00,24.2,4.4,29.88,NW,315,0.0,0.0,42,0.00,,,0.00,VWS V14.01,2013-02-05 01:14:00,
2013-02-04 20:19:00,24.0,4.8,29.88,NW,315,0.0,0.0,43,0.00,,,0.00,VWS V14.01,2013-02-05 01:19:00,
2013-02-04 20:24:00,23.8,5.1,29.88,NW,315,0.0,0.0,44,0.00,,,0.00,VWS V14.01,2013-02-05 01:24:00,
2013-02-04 20:29:00,23.8,5.1,29.88,NW,315,0.0,0.0,44,0.00,,,0.00,VWS V14.01,2013-02-05 01:29:00,
2013-02-04 20:34:00,23.6,5.4,29.88,NW,315,0.0,0.0,45,0.00,,,0.00,VWS V14.01,2013-02-05 01:34:00,
2013-02-04 20:39:00,23.5,5.3,29.88,NW,315,0.0,0.0,45,0.00,,,0.00,VWS V14.01,2013-02-05 01:39:00,
2013-02-04 20:44:00,23.3,5.6,29.88,NW,315,0.0,0.0,46,0.00,,,0.00,VWS V14.01,2013-02-05 01:44:00,
2013-02-04 20:49:00,23.6,5.9,29.88,NW,315,0.0,0.0,46,0.00,,,0.00,VWS V14.01,2013-02-05 01:49:00,
2013-02-04 20:54:00,23.8,6.1,29.88,NW,315,0.0,0.0,46,0.00,,,0.00,VWS V14.01,2013-02-05 01:54:00,
2013-02-04 20:59:00,24.0,6.2,29.88,NW,315,0.0,0.0,46,0.00,,,0.00,VWS V14.01,2013-02-05 01:59:00,
2013-02-04 21:04:00,24.2,6.4,29.88,NW,315,0.0,0.0,46,0.00,,,0.00,VWS V14.01,2013-02-05 02:04:00,
2013-02-04 21:09:00,24.4,6.6,29.88,NW,315,0.0,0.0,46,0.00,,,0.00,VWS V14.01,2013-02-05 02:09:00,
2013-02-04 21:14:00,24.7,6.9,29.88,NW,315,0.0,0.0,46,0.00,,,0.00,VWS V14.01,2013-02-05 02:14:00,
2013-02-04 21:19:00,25.1,7.2,29.88,NW,315,0.0,0.0,46,0.00,,,0.00,VWS V14.01,2013-02-05 02:19:00,
2013-02-04 21:24:00,25.3,7.4,29.88,NW,315,0.0,0.0,46,0.00,,,0.00,VWS V14.01,2013-02-05 02:24:00,
2013-02-04 21:29:00,25.4,7.6,29.88,NW,315,0.0,0.0,46,0.00,,,0.00,VWS V14.01,2013-02-05 02:29:00,
2013-02-04 21:34:00,25.6,7.7,29.88,NW,315,0.0,0.0,46,0.00,,,0.00,VWS V14.01,2013-02-05 02:34:00,
2013-02-04 21:39:00,25.8,7.9,29.88,NW,315,0.0,0.0,46,0.00,,,0.00,VWS V14.01,2013-02-05 02:39:00,
2013-02-04 21:44:00,25.8,7.9,29.88,NW,315,0.0,0.0,46,0.00,,,0.00,VWS V14.01,2013-02-05 02:44:00,
2013-02-04 21:49:00,26.0,7.6,29.88,NW,315,0.0,0.0,45,0.00,,,0.00,VWS V14.01,2013-02-05 02:49:00,
2013-02-04 21:55:00,26.2,7.7,29.88,NW,315,0.0,0.0,45,0.00,,,0.00,VWS V14.01,2013-02-05 02:55:00,
2013-02-04 22:00:00,26.2,7.7,29.88,NW,315,0.0,0.0,45,0.00,,,0.00,VWS V14.01,2013-02-05 03:00:00,
2013-02-04 22:05:00,26.3,7.9,29.88,NW,315,0.0,0.0,45,0.00,,,0.00,VWS V14.01,2013-02-05 03:05:00,
2013-02-04 22:10:00,26.5,8.1,29.88,NW,315,0.0,0.0,45,0.00,,,0.00,VWS V14.01,2013-02-05 03:10:00,
2013-02-04 22:15:00,26.5,8.1,29.88,NW,315,0.0,0.0,45,0.00,,,0.00,VWS V14.01,2013-02-05 03:15:00,
2013-02-04 22:20:00,26.7,8.2,29.88,NW,315,0.0,0.0,45,0.00,,,0.00,VWS V14.01,2013-02-05 03:20:00,
2013-02-04 22:25:00,26.9,8.4,29.88,NW,315,0.0,0.0,45,0.00,,,0.00,VWS V14.01,2013-02-05 03:25:00,
2013-02-04 22:30:00,27.1,8.6,29.88,NW,315,0.0,0.0,45,0.00,,,0.00,VWS V14.01,2013-02-05 03:30:00,
2013-02-04 22:35:00,27.1,8.6,29.88,NW,315,0.0,0.0,45,0.00,,,0.00,VWS V14.01,2013-02-05 03:35:00,
2013-02-04 22:40:00,27.2,9.2,29.88,NW,315,0.0,0.0,46,0.00,,,0.00,VWS V14.01,2013-02-05 03:40:00,
2013-02-04 22:45:00,27.2,9.2,29.88,NW,315,0.0,0.0,46,0.00,,,0.00,VWS V14.01,2013-02-05 03:45:00,
2013-02-04 22:50:00,27.2,9.2,29.88,NW,315,0.0,0.0,46,0.00,,,0.00,VWS V14.01,2013-02-05 03:50:00,
2013-02-04 22:55:00,27.1,9.5,29.85,NW,315,0.0,0.0,47,0.00,,,0.00,VWS V14.01,2013-02-05 03:55:00,
2013-02-04 23:00:00,27.1,10.0,29.85,NW,315,0.0,0.0,48,0.00,,,0.00,VWS V14.01,2013-02-05 04:00:00,
2013-02-04 23:05:00,27.1,10.0,29.88,NW,315,0.0,0.0,48,0.00,,,0.00,VWS V14.01,2013-02-05 04:05:00,
2013-02-04 23:10:00,27.2,10.6,29.88,NW,315,0.0,0.0,49,0.00,,,0.00,VWS V14.01,2013-02-05 04:10:00,
2013-02-04 23:15:00,27.2,10.6,29.88,NW,315,0.0,0.0,49,0.00,,,0.00,VWS V14.01,2013-02-05 04:15:00,
2013-02-04 23:20:00,27.2,11.1,29.88,NW,315,0.0,0.0,50,0.00,,,0.00,VWS V14.01,2013-02-05 04:20:00,
2013-02-04 23:26:00,27.4,12.1,29.88,NW,315,0.0,0.0,52,0.00,,,0.00,VWS V14.01,2013-02-05 04:26:00,
2013-02-04 23:31:00,27.4,12.1,29.88,NW,315,0.0,0.0,52,0.00,,,0.00,VWS V14.01,2013-02-05 04:31:00,
2013-02-04 23:36:00,27.4,12.6,29.88,NW,315,0.0,0.0,53,0.00,,,0.00,VWS V14.01,2013-02-05 04:36:00,
2013-02-04 23:41:00,27.6,13.6,29.88,NW,315,0.0,0.0,55,0.00,,,0.00,VWS V14.01,2013-02-05 04:41:00,
2013-02-04 23:46:00,27.6,13.6,29.88,NW,315,0.0,0.0,55,0.00,,,0.00,VWS V14.01,2013-02-05 04:46:00,
2013-02-04 23:51:00,27.8,14.1,29.85,NW,313,0.0,0.0,56,0.00,,,0.00,VWS V14.01,2013-02-05 04:51:00,
2013-02-04 23:56:00,27.6,15.2,29.85,South,174,0.0,0.0,59,0.00,,,0.00,VWS V14.01,2013-02-05 04:56:00,